CYSP

Marathon Airport

Marathon, Ontario, Canada
METAR CYSP 221800Z 18008G21KT 150V220 1/2SM SN DRSN VV002 M05/M06 A2997 RMK SN8 /S08/ SLP173
Observed Flight Rules
Jan-22 @ 18:00 UTC (53 minutes ago) Instrument Flight Rules
Wind Visibility Clouds Conditions
180° at 8 knots
 Gusting to 21 knots
1/2 miles
  • Vertical visibility at 200' AGL
  • Low drifting
  • Snow
  • Snow
Temperatures Readings
Current -5°C / 23°F
Dewpoint -6°C / 21°F
Humidity 93%
Altimeter 29.97" Hg
Pressure 1017.3 hPa
Elevation 315
METAR CYSP 221800Z 18008G21KT 150V220 1/2SM SN DRSN VV002 M05/M06 A2997 RMK SN8 /S08/ SLP173
Observed Flight Rules
Jan-22 @ 18:00 UTC
(53 minutes ago)
LIFR
Wind Visibility
180° at 8 knots
 Gusting to 21 knots
1/2 miles
Clouds
  • Vertical visibility at 200' AGL
Conditions
  • Low drifting
  • Snow
  • Snow
Temperature Dewpoint
-5°C / 23°F -6°C / 21°F
Humidity Altimeter Pressure
93% 29.97" Hg 1017.3 hPa